Phil's Backyard

 Latitude S 29° 46' 26"    Longitude E 151° 07' 14"    Elevation 586 m

:now: :today: :yesterday: :daily data: :this month: :this year: :records: :monthly records:
:gauges: :graphs: :weatherzone: :forum: :dashboard: :webcam:
Legend:
Low (0-210)
Very High (490 - 630)

Moderate (210 - 350)
Extreme (630 - 800)

High (350 - 490)
Catastrophic (800+)


 
35.97
Date Temp. (°C) Wind Speed (km/h) Rain (mm) RH Days Since Rain pwsFWI
Prediction is active (including today!), values are above red line.
01/02/20 31.00 14.00 0.00 0.48 5 283.80
31/01/20 32.00 14.00 0.00 0.45 4 217.53
30/01/20 34.00 13.00 0.00 0.34 3 143.46
29/01/20 32.00 10.00 0.00 0.48 2 102.53
28/01/20 30.00 9.00 0.00 0.48 1 40.63
27/01/20 32.80 20.90 7.60 0.48 0 35.97
26/01/20 33.10 14.50 2.20 0.45 0 217.50
25/01/20 35.90 27.40 9.40 0.41 0 63.57
24/01/20 31.10 12.90 0.00 0.56 1 116.90
23/01/20 33.90 20.90 6.20 0.48 0 158.08
22/01/20 36.90 30.60 3.40 0.27 0 203.91
21/01/20 34.10 19.30 0.00 0.14 1 298.06
20/01/20 34.30 35.40 21.00 0.44 0 191.17
19/01/20 32.40 11.30 0.00 0.41 2 261.76
18/01/20 27.30 17.70 0.00 0.57 1 330.57
17/01/20 27.60 14.50 29.40 0.59 0 397.52
16/01/20 31.20 25.70 13.20 0.47 0 546.41
15/01/20 33.80 16.10 1.20 0.35 0 671.49
14/01/20 35.10 16.10 0.00 0.23 5 510.24
13/01/20 34.40 17.70 0.00 0.30 4 599.00
12/01/20 30.60 22.50 0.00 0.45 3 714.41
11/01/20 34.30 17.70 0.00 0.36 2 726.47
10/01/20 36.70 12.90 0.00 0.30 1 947.29
09/01/20 37.70 29.00 13.00 0.31 0 1053.82
08/01/20 37.80 22.50 0.00 0.22 1 1085.37
07/01/20 36.30 30.60 0.40 0.32 0 737.29
06/01/20 36.80 12.90 0.00 0.24 4 586.09
05/01/20 40.20 19.30 0.00 0.19 3 574.55
04/01/20 39.60 11.30 0.00 0.19 2 514.18
03/01/20 38.60 11.30 0.00 0.24 1 660.75
02/01/20 40.80 24.10 9.60 0.20 0 774.99
01/01/20 37.90 9.70 0.00 0.25 7 797.74
31/12/19 38.10 9.70 0.00 0.14 6 811.40
30/12/19 38.50 14.50 0.00 0.12 5 849.10
29/12/19 38.60 12.90 0.00 0.08 4 809.49
28/12/19 36.30 12.90 0.00 0.14 3 745.40
27/12/19 34.80 12.90 0.00 0.20 2 855.27
26/12/19 34.80 11.30 0.00 0.12 1 877.73
25/12/19 32.80 22.50 0.20 0.33 0 842.54
24/12/19 35.90 16.10 0.00 0.29 11 769.54
23/12/19 37.00 11.30 0.00 0.30 10 735.88
22/12/19 43.00 16.10 0.00 0.12 9 739.79
21/12/19 39.10 11.30 0.00 0.13 8 709.44
20/12/19 39.50 6.40 0.00 0.17 7 685.06
19/12/19 37.20 6.40 0.00 0.19 6 694.35
18/12/19 36.80 9.70 0.00 0.15 5 713.48
17/12/19 36.70 9.70 0.00 0.13 4 806.30
16/12/19 36.60 19.30 0.00 0.09 3 968.69
15/12/19 35.90 11.30 0.00 0.14 2 928.22
14/12/19 35.10 9.70 0.00 0.21 1 914.44
13/12/19 32.10 14.50 0.20 0.38 0 968.50
12/12/19 37.50 17.70 0.00 0.14 1 1040.58
11/12/19 40.40 20.90 0.20 0.15 0 1051.90
10/12/19 37.90 16.10 0.00 0.17 9 918.76
09/12/19 37.40 9.70 0.00 0.18 8 877.83
08/12/19 36.50 12.90 0.00 0.10 7 882.40
07/12/19 37.20 12.90 0.00 0.04 6 853.12
06/12/19 35.80 19.30 0.00 0.08 5 773.36
05/12/19 33.70 12.90 0.00 0.07 4 564.03
04/12/19 31.60 16.10 0.00 0.09 3 589.47
03/12/19 29.10 16.10 0.00 0.17 2 555.42
02/12/19 24.70 25.70 0.00 0.29 1 555.54
01/12/19 26.10 19.30 0.40 0.40 0 441.26
30/11/19 32.30 24.10 2.60 0.36 0 512.33
29/11/19 36.10 16.10 0.00 0.21 3 440.89
28/11/19 34.80 11.30 0.00 0.18 2 385.45
27/11/19 33.70 11.30 0.00 0.08 1 406.72
26/11/19 34.30 27.40 1.40 0.25 0 505.14
25/11/19 30.90 12.90 1.00 0.35 0 636.85
24/11/19 32.70 19.30 3.80 0.33 0 730.94
23/11/19 35.40 11.30 0.20 0.25 0 738.84
22/11/19 36.40 12.90 0.00 0.20 19 811.97
21/11/19 35.60 11.30 0.00 0.26 18 832.14
20/11/19 38.20 19.30 0.00 0.06 17 839.99
19/11/19 33.70 11.30 0.00 0.11 16 667.33
18/11/19 31.10 9.70 0.00 0.18 15 654.39
17/11/19 30.70 19.30 0.00 0.11 14 802.20
16/11/19 33.30 16.10 0.00 0.11 13 748.16
15/11/19 32.10 12.90 0.00 0.14 12 685.38
14/11/19 29.30 9.70 0.00 0.10 11 683.49
13/11/19 28.30 12.90 0.00 0.06 10 816.11
12/11/19 35.00 20.90 0.00 0.06 9 887.82
11/11/19 30.60 12.90 0.00 0.13 8 752.92
10/11/19 27.20 14.50 0.00 0.19 7 754.88
09/11/19 21.90 22.50 0.00 0.11 6 757.28
08/11/19 31.70 24.10 0.00 0.09 5 651.30
07/11/19 32.10 19.30 0.00 0.10 4 514.36
06/11/19 28.60 12.90 0.00 0.14 3 447.84
05/11/19 21.30 25.70 0.00 0.22 2 360.20
04/11/19 28.10 16.10 0.00 0.28 1 314.64
03/11/19 31.50 14.50 2.00 0.34 0 329.35
02/11/19 28.90 12.90 0.00 0.33 2 430.20
01/11/19 30.80 14.50 0.00 0.22 1 476.59
31/10/19 29.10 11.30 3.40 0.32 0 603.56
30/10/19 26.70 14.50 0.00 0.44 4 661.95
29/10/19 29.40 9.70 0.00 0.25 3 688.22
28/10/19 30.10 19.30 0.00 0.13 2 699.15
27/10/19 30.10 14.50 0.00 0.06 1 656.92
26/10/19 32.20 25.70 0.20 0.20 0 618.73
25/10/19 30.70 12.90 0.00 0.25 9 542.54
24/10/19 31.20 11.30 0.00 0.18 8 574.86
23/10/19 30.40 9.70 0.00 0.15 7 581.82
22/10/19 28.80 16.10 0.00 0.20 6 698.66
21/10/19 27.60 12.90 0.00 0.17 5 595.89
20/10/19 27.40 17.70 0.00 0.13 4 614.52
19/10/19 27.40 17.70 0.00 0.08 3 566.37
18/10/19 28.10 12.90 0.00 0.06 2 486.86
17/10/19 32.60 24.10 0.00 0.20 1 393.87
16/10/19 34.10 14.50 1.40 0.23 0 263.21
15/10/19 31.90 14.50 0.00 0.28 3 206.60
14/10/19 27.20 12.90 0.00 0.30 2 186.33
13/10/19 24.10 9.70 0.00 0.31 1 298.19
12/10/19 20.60 16.10 1.60 0.44 0 491.10
11/10/19 20.80 16.10 20.20 0.44 0 592.62
10/10/19 23.60 9.70 6.40 0.26 0 664.81
09/10/19 24.90 14.50 0.00 0.13 17 769.16
08/10/19 31.50 24.10 0.00 0.20 16 756.17
07/10/19 35.70 20.90 0.00 0.13 15 647.66
06/10/19 33.40 12.90 0.00 0.18 14 503.46
05/10/19 31.20 9.70 0.00 0.17 13 486.17
04/10/19 30.10 14.50 0.00 0.18 12 539.27
03/10/19 28.20 11.30 0.00 0.22 11 562.20
02/10/19 27.70 11.30 0.00 0.16 10 566.06
01/10/19 24.70 16.10 0.00 0.31 9 560.71
30/09/19 26.10 16.10 0.00 0.15 8 541.12
29/09/19 26.90 20.90 0.00 0.14 7 501.71
28/09/19 28.00 19.30 0.00 0.14 6 475.01
27/09/19 26.50 14.50 0.00 0.28 5 348.82
26/09/19 24.10 14.50 0.00 0.24 4 357.78
25/09/19 24.20 11.30 0.00 0.26 3 365.57
24/09/19 24.80 9.70 0.00 0.11 2 401.36
23/09/19 25.50 17.70 0.00 0.12 1 391.92
22/09/19 27.70 17.70 1.40 0.36 0 431.39
21/09/19 27.40 16.10 0.00 0.30 41 541.03
20/09/19 27.60 14.50 0.00 0.30 40 512.18
19/09/19 26.10 17.70 0.00 0.27 39 558.70
18/09/19 23.90 11.30 0.00 0.32 38 560.14
17/09/19 24.70 20.90 0.00 0.23 37 576.63
16/09/19 28.40 16.10 0.00 0.11 36 512.50
15/09/19 27.60 8.00 0.00 0.08 35 459.49
14/09/19 27.20 17.70 0.00 0.04 34 477.92
13/09/19 26.40 14.50 0.00 0.10 33 426.05
12/09/19 23.10 14.50 0.00 0.23 32 406.56
11/09/19 22.80 8.00 0.00 0.17 31 550.99
10/09/19 19.40 16.10 0.00 0.19 30 634.51
09/09/19 15.60 27.40 0.00 0.24 29 697.98
08/09/19 19.20 20.90 0.00 0.23 28 727.47
07/09/19 18.80 22.50 0.00 0.27 27 739.49
06/09/19 30.70 25.70 0.00 0.08 26 717.58
05/09/19 29.80 16.10 0.00 0.10 25 549.89
04/09/19 29.20 17.70 0.00 0.14 24 457.82
03/09/19 26.80 16.10 0.00 0.08 23 380.16
02/09/19 24.80 16.10 0.00 0.16 22 313.19
01/09/19 23.70 11.30 0.00 0.24 21 275.22
31/08/19 21.70 9.70 0.00 0.17 20 285.44
30/08/19 20.40 8.00 0.00 0.21 19 298.14
29/08/19 20.20 11.30 0.00 0.13 18 303.44
28/08/19 20.90 12.90 0.00 0.40 17 291.44
27/08/19 25.10 9.70 0.00 0.23 16 314.82
26/08/19 25.20 11.30 0.00 0.15 15 311.87
25/08/19 23.80 12.90 0.00 0.27 14 297.80
24/08/19 22.80 9.70 0.00 0.32 13 296.16
23/08/19 20.70 9.70 0.00 0.25 12 324.21
22/08/19 19.30 20.90 0.00 0.33 11 353.42
21/08/19 19.60 14.50 0.00 0.31 10 342.22
20/08/19 18.60 14.50 0.00 0.22 9 331.13
19/08/19 17.20 17.70 0.00 0.21 8 316.08
18/08/19 25.30 12.90 0.00 0.21 7 282.09
17/08/19 23.90 12.90 0.00 0.14 6 235.08
16/08/19 22.20 12.90 0.00 0.24 5 208.01
15/08/19 20.30 11.30 0.00 0.34 4 221.37
14/08/19 21.30 9.70 0.00 0.30 3 245.70
13/08/19 20.20 6.40 0.00 0.28 2 312.37
12/08/19 15.60 9.70 0.00 0.43 1 289.61
11/08/19 12.20 22.50 0.60 0.38 0 311.36
10/08/19 14.90 27.40 0.00 0.28 3 310.96
09/08/19 17.30 24.10 0.00 0.36 2 277.42
08/08/19 21.20 25.70 0.00 0.21 1 246.61
07/08/19 20.60 12.90 1.20 0.33 0 201.60
06/08/19 21.10 11.30 0.00 0.25 15 231.00
05/08/19 21.70 9.70 0.00 0.28 14 230.98
04/08/19 21.60 8.00 0.00 0.17 13 228.53
03/08/19 20.10 9.70 0.00 0.32 12 224.38
02/08/19 20.30 11.30 0.00 0.31 11 219.14
01/08/19 20.00 11.30 0.00 0.33 10 219.51
31/07/19 21.40 12.90 0.00 0.34 9 214.53
30/07/19 19.10 12.90 0.00 0.39 8 201.90
29/07/19 19.90 9.70 0.00 0.31 7 205.02
28/07/19 20.60 8.00 0.00 0.31 6 230.77
27/07/19 20.20 11.30 0.00 0.28 5 215.91
26/07/19 20.40 11.30 0.00 0.42 4 209.44
25/07/19 20.70 9.70 0.00 0.33 3 216.06
24/07/19 20.60 11.30 0.00 0.29 2 222.78
23/07/19 21.90 14.50 0.00 0.24 1 220.09
22/07/19 19.30 6.40 0.40 0.55 0 189.53
21/07/19 20.40 11.30 0.00 0.39 13 230.08
20/07/19 20.40 9.70 0.00 0.16 12 231.20
19/07/19 18.50 11.30 0.00 0.18 11 219.79
18/07/19 16.40 16.10 0.00 0.38 10 228.51
17/07/19 17.90 11.30 0.00 0.39 9 223.58
16/07/19 18.40 14.50 0.00 0.34 8 251.22
15/07/19 13.60 20.90 0.00 0.46 7 229.55
14/07/19 13.20 14.50 0.00 0.35 6 213.34
13/07/19 16.30 22.50 0.00 0.41 5 183.79
12/07/19 18.40 12.90 0.00 0.39 4 133.69
11/07/19 18.50 20.90 0.00 0.36 3 142.65
10/07/19 15.70 12.90 0.00 0.57 2 135.22
09/07/19 17.30 9.70 0.00 0.48 1 180.03
08/07/19 16.10 8.00 4.40 0.71 0 209.55
07/07/19 21.80 12.90 2.60 0.36 0 265.90
06/07/19 18.70 19.30 0.00 0.48 18 295.24
05/07/19 21.70 17.70 0.00 0.45 17 287.80
04/07/19 22.10 19.30 0.00 0.36 16 273.58
03/07/19 23.20 11.30 0.00 0.28 15 246.83
02/07/19 21.40 11.30 0.00 0.32 14 244.97
01/07/19 21.80 9.70 0.00 0.35 13 253.42
30/06/19 21.70 12.90 0.00 0.45 12 260.05
29/06/19 21.90 12.90 0.00 0.45 11 259.87
28/06/19 20.80 14.50 0.00 0.44 10 242.62
27/06/19 21.50 16.10 0.00 0.45 9 227.05
26/06/19 21.20 16.10 0.00 0.40 8 214.85
25/06/19 19.10 16.10 0.00 0.43 7 193.78
24/06/19 17.00 14.50 0.00 0.33 6 182.25
23/06/19 16.70 8.00 0.00 0.31 5 169.72
22/06/19 16.60 9.70 0.00 0.31 4 172.64
21/06/19 14.80 14.50 0.00 0.30 3 186.59
20/06/19 18.30 11.30 0.00 0.40 2 173.37
19/06/19 16.50 12.90 0.00 0.38 1 143.92
18/06/19 19.80 11.30 0.20 0.50 0 141.92
17/06/19 16.70 11.30 0.00 0.42 3 154.37
16/06/19 18.80 14.50 0.00 0.36 2 160.10
15/06/19 20.60 11.30 0.00 0.60 1 143.14
14/06/19 19.80 8.00 3.00 0.57 0 132.61
13/06/19 22.20 11.30 0.00 0.52 8 137.31
12/06/19 21.60 11.30 0.00 0.39 7 154.29
11/06/19 22.20 9.70 0.00 0.39 6 152.14
10/06/19 20.70 11.30 0.00 0.56 5 142.44
09/06/19 17.80 3.20 0.00 0.66 4 126.75
08/06/19 15.20 4.80 0.00 0.72 3 121.33
07/06/19 22.10 14.50 0.00 0.39 2 115.70
06/06/19 19.30 11.30 0.00 0.32 1 103.84
05/06/19 16.30 12.90 0.60 0.52 0 95.47
04/06/19 11.10 12.90 0.20 0.72 0 110.28
03/06/19 14.60 16.10 1.60 0.64 0 147.01
02/06/19 13.80 11.30 8.80 0.68 0 169.55
01/06/19 22.60 9.70 0.00 0.32 28 252.26
31/05/19 15.10 12.90 0.00 0.39 27 254.87
30/05/19 14.30 16.10 0.00 0.28 26 240.93
29/05/19 16.70 16.10 0.00 0.40 25 233.74
28/05/19 14.90 12.90 0.00 0.35 24 232.07
27/05/19 19.30 17.70 0.00 0.26 23 235.77
26/05/19 22.40 11.30 0.00 0.35 22 207.18
25/05/19 21.80 4.80 0.00 0.44 21 194.12
24/05/19 23.80 8.00 0.00 0.33 20 220.48
23/05/19 24.80 8.00 0.00 0.28 19 216.75
22/05/19 23.50 9.70 0.00 0.41 18 219.12
21/05/19 24.50 8.00 0.00 0.37 17 227.52
20/05/19 22.90 8.00 0.00 0.38 16 247.21
19/05/19 23.60 11.30 0.00 0.37 15 249.93
18/05/19 22.80 8.00 0.00 0.35 14 261.07
17/05/19 23.30 11.30 0.00 0.39 13 253.87
16/05/19 23.40 14.50 0.00 0.49 12 240.72
15/05/19 24.30 12.90 0.00 0.34 11 260.55
14/05/19 25.00 8.00 0.00 0.38 10 243.03
13/05/19 24.00 14.50 0.00 0.38 9 259.79
12/05/19 21.50 6.40 0.00 0.31 8 239.86
11/05/19 15.20 16.10 0.00 0.51 7 256.25
10/05/19 22.10 22.50 0.00 0.47 6 270.02
09/05/19 21.90 9.70 0.00 0.31 5 205.74
08/05/19 20.60 16.10 0.00 0.37 4 169.65
07/05/19 21.20 9.70 0.00 0.29 3 163.08
06/05/19 21.30 11.30 0.00 0.30 2 161.84
05/05/19 19.50 14.50 0.00 0.36 1 164.69
04/05/19 20.80 16.10 1.80 0.48 0 200.66
03/05/19 22.20 11.30 14.00 0.60 0 236.87
02/05/19 27.30 9.70 0.00 0.38 16 317.55
01/05/19 23.90 12.90 0.00 0.55 15 321.81
30/04/19 25.10 11.30 0.00 0.39 14 326.66
29/04/19 27.40 11.30 0.00 0.29 13 311.82
28/04/19 25.30 9.70 0.00 0.22 12 290.24
27/04/19 26.90 11.30 0.00 0.09 11 300.59
26/04/19 27.20 11.30 0.00 0.40 10 307.48
25/04/19 27.40 8.00 0.00 0.31 9 331.66
24/04/19 24.30 9.70 0.00 0.49 8 358.78
23/04/19 24.10 12.90 0.00 0.51 7 382.02
22/04/19 26.20 14.50 0.00 0.39 6 396.85
21/04/19 28.10 16.10 0.00 0.34 5 401.31
20/04/19 27.70 16.10 0.00 0.38 4 371.37
19/04/19 29.60 12.90 0.00 0.36 3 335.10
18/04/19 27.90 11.30 0.00 0.36 2 313.84
17/04/19 27.20 11.30 0.00 0.34 1 299.25
16/04/19 26.60 14.50 0.20 0.35 0 301.94
15/04/19 25.80 11.30 0.00 0.31 13 326.82
14/04/19 25.80 8.00 0.00 0.27 12 370.81
13/04/19 26.20 9.70 0.00 0.27 11 400.62
12/04/19 27.10 8.00 0.00 0.29 10 407.11
11/04/19 26.60 12.90 0.00 0.36 9 420.09
10/04/19 27.70 14.50 0.00 0.28 8 407.35
09/04/19 29.60 17.70 0.00 0.34 7 394.95
08/04/19 30.40 11.30 0.00 0.29 6 359.42
07/04/19 29.40 9.70 0.00 0.30 5 288.91
06/04/19 27.50 11.30 0.00 0.34 4 267.05
05/04/19 28.10 9.70 0.00 0.38 3 261.17
04/04/19 27.70 12.90 0.00 0.31 2 164.80
03/04/19 28.70 11.30 0.00 0.30 1 147.58
02/04/19 26.00 16.10 1.60 0.47 0 200.80
01/04/19 25.40 8.00 0.00 0.33 2 210.64
31/03/19 20.80 14.50 0.00 0.30 1 213.48
30/03/19 26.10 19.30 20.60 0.51 0 260.70
29/03/19 31.30 14.50 10.00 0.33 0 399.75
28/03/19 30.10 16.10 0.00 0.36 2 495.95
27/03/19 23.70 14.50 0.00 0.57 1 477.30
26/03/19 27.70 11.30 0.40 0.54 0 530.00
25/03/19 31.30 14.50 0.80 0.42 0 564.81
24/03/19 35.60 16.10 0.00 0.30 1 585.64
23/03/19 34.60 16.10 0.20 0.30 0 499.28
22/03/19 32.10 11.30 0.00 0.35 5 335.12
21/03/19 32.90 12.90 0.00 0.30 4 264.02
20/03/19 32.10 11.30 0.00 0.32 3 280.91
19/03/19 30.20 16.10 0.00 0.30 2 293.00
18/03/19 28.30 9.70 0.00 0.39 1 403.43
17/03/19 27.70 20.90 8.00 0.55 0 512.50
16/03/19 31.40 19.30 3.80 0.36 0 545.92
15/03/19 31.20 16.10 0.00 0.26 4 638.72
14/03/19 31.90 12.90 0.00 0.29 3 616.79
13/03/19 35.60 16.10 0.00 0.13 2 624.34
12/03/19 33.10 17.70 0.00 0.26 1 365.82
11/03/19 35.30 20.90 1.80 0.27 0 426.20
10/03/19 35.30 17.70 0.00 0.28 1 412.37
09/03/19 34.40 11.30 1.00 0.29 0 364.80
08/03/19 34.20 14.50 0.00 0.39 1 472.24
07/03/19 35.30 24.10 20.80 0.31 0 550.43
06/03/19 34.90 12.90 0.00 0.26 25 627.16
05/03/19 32.80 9.70 0.00 0.25 24 640.89
04/03/19 33.80 12.90 0.00 0.27 23 659.71
03/03/19 31.60 16.10 0.00 0.34 22 636.53
02/03/19 31.30 19.30 0.00 0.37 21 636.32
01/03/19 32.30 16.10 0.00 0.26 20 656.30
28/02/19 31.10 17.70 0.00 0.24 19 658.64
27/02/19 31.20 14.50 0.00 0.30 18 672.46
26/02/19 31.40 11.30 0.00 0.26 17 774.76
25/02/19 32.30 14.50 0.00 0.29 16 871.83
24/02/19 30.60 20.90 0.00 0.28 15 908.75
23/02/19 30.90 17.70 0.00 0.25 14 899.65
22/02/19 31.40 20.90 0.00 0.29 13 894.25
21/02/19 36.90 20.90 0.00 0.25 12 866.86
20/02/19 38.70 16.10 0.00 0.21 11 781.56
19/02/19 38.10 12.90 0.00 0.20 10 727.99
18/02/19 37.30 11.30 0.00 0.14 9 841.90
17/02/19 34.70 12.90 0.00 0.20 8 910.89
16/02/19 33.80 12.90 0.00 0.19 7 936.05
15/02/19 33.30 14.50 0.00 0.25 6 934.53
14/02/19 33.20 17.70 0.00 0.32 5 713.28
13/02/19 37.30 22.50 0.00 0.12 4 720.08
12/02/19 35.50 19.30 0.00 0.13 3 572.80
11/02/19 34.60 14.50 0.00 0.12 2 526.36
10/02/19 34.20 11.30 0.00 0.10 1 635.95
09/02/19 34.40 29.00 7.20 0.33 0 718.54
08/02/19 35.90 14.50 0.00 0.24 11 770.66
07/02/19 32.30 17.70 0.00 0.38 10 775.34
06/02/19 34.60 19.30 0.00 0.30 9 771.41
05/02/19 34.80 17.70 0.00 0.28 8 705.57
04/02/19 35.30 14.50 0.00 0.26 7 691.23
03/02/19 34.60 14.50 0.00 0.30 6 707.04
02/02/19 34.30 17.70 0.00 0.29 5 714.19
CumulusUtils Version 2.1.0 - generated at 28/01/2020 09:00 - © Hans Rottier
Science background here. - NOTE: Behavioural testing still under way!
Prediction courtesy of https://www.yourweather.co.uk/
:now: :today: :yesterday: :daily data: :this month: :this year: :records: :monthly records:
:gauges: :graphs: :weatherzone: :forum: :dashboard: ::
:
fire index: :fwi graphs: :top10: :extremes: :sysinfo:


Page updated daily at 9:00 AM
powered by CumulusMX v3.1.2 (3055) Valid HTML | Valid CSS
this page by Hans Rottier from the Cumulus Forum

Cumulus Top Weather Sites